createdAt,value
2022-10-25T00:02:25.667Z,9.45
2022-10-25T00:05:01.980Z,7.97
2022-10-25T00:07:53.682Z,6.43
2022-10-25T00:10:45.553Z,11.15
2022-10-25T00:13:20.656Z,10.70
2022-10-25T00:16:29.978Z,16.15
2022-10-25T00:19:01.908Z,11.07
2022-10-25T00:21:29.088Z,7.38
2022-10-25T00:24:05.199Z,7.97
2022-10-25T00:26:42.114Z,10.48
2022-10-25T00:29:26.441Z,10.90
2022-10-25T00:32:37.237Z,9.52
2022-10-25T00:35:11.913Z,8.23
2022-10-25T00:37:47.016Z,7.60
2022-10-25T00:40:14.058Z,7.78
2022-10-25T00:42:52.320Z,7.25
2022-10-25T00:45:29.168Z,7.75
2022-10-25T00:48:13.007Z,7.35
2022-10-25T00:51:04.207Z,7.90
2022-10-25T00:53:37.374Z,7.70
2022-10-25T00:56:41.154Z,9.20
2022-10-25T00:59:17.669Z,11.30
2022-10-25T01:01:54.163Z,11.70
2022-10-25T01:04:24.959Z,20.42
2022-10-25T01:07:05.637Z,25.85
2022-10-25T01:09:42.014Z,16.02
2022-10-25T01:12:16.188Z,27.92
2022-10-25T01:14:48.964Z,13.40
2022-10-25T01:17:36.945Z,8.32
2022-10-25T01:20:16.754Z,11.90
2022-10-25T01:23:22.675Z,7.97
2022-10-25T01:26:20.769Z,7.93
2022-10-25T01:29:16.673Z,9.55
2022-10-25T01:32:06.724Z,7.75
2022-10-25T01:34:46.797Z,7.65
2022-10-25T01:37:52.129Z,7.60
2022-10-25T01:40:52.327Z,7.63
2022-10-25T01:43:59.959Z,6.95
2022-10-25T01:46:40.470Z,6.70
2022-10-25T01:49:46.628Z,7.15
2022-10-25T01:52:29.908Z,6.88
2022-10-25T01:55:02.822Z,7.78
2022-10-25T02:02:00.670Z,9.73
2022-10-25T02:04:59.209Z,8.02
2022-10-25T02:07:53.877Z,7.43
2022-10-25T02:10:43.024Z,7.53
2022-10-25T02:14:00.435Z,7.00
2022-10-25T02:16:59.499Z,7.72
2022-10-25T02:20:00.628Z,8.30
2022-10-25T02:22:33.295Z,8.40
2022-10-25T02:25:04.161Z,8.10
2022-10-25T02:27:55.674Z,6.97
2022-10-25T02:30:22.863Z,10.30
2022-10-25T02:33:17.679Z,24.98
2022-10-25T02:36:38.462Z,10.95
2022-10-25T02:39:12.669Z,13.82
2022-10-25T02:42:04.781Z,33.83
2022-10-25T02:45:08.038Z,10.95
2022-10-25T02:47:36.202Z,7.45
2022-10-25T02:50:06.292Z,7.43
2022-10-25T02:52:34.253Z,7.57
2022-10-25T02:55:02.591Z,6.88
2022-10-25T02:57:35.081Z,7.18
2022-10-25T03:00:05.430Z,15.27
2022-10-25T03:02:43.697Z,8.40
2022-10-25T03:06:00.556Z,8.07
2022-10-25T03:08:51.438Z,7.38
2022-10-25T03:11:57.523Z,7.50
2022-10-25T03:14:26.497Z,7.88
2022-10-25T03:16:56.376Z,7.40
2022-10-25T03:20:20.057Z,6.90
2022-10-25T03:22:47.015Z,7.15
2022-10-25T03:25:15.146Z,7.43
2022-10-25T03:28:01.161Z,7.68
2022-10-25T03:30:59.837Z,7.35
2022-10-25T03:36:11.350Z,7.82
2022-10-25T03:38:38.416Z,7.32
2022-10-25T03:41:10.525Z,7.60
2022-10-25T03:43:58.992Z,7.18
2022-10-25T03:46:57.753Z,6.43
2022-10-25T03:49:30.928Z,6.15
2022-10-25T03:52:09.017Z,7.90
2022-10-25T03:54:49.279Z,7.75
2022-10-25T03:57:44.254Z,6.45
2022-10-25T04:00:33.984Z,8.60
2022-10-25T04:03:32.778Z,12.60
2022-10-25T04:06:15.158Z,9.82
2022-10-25T04:08:45.370Z,13.15
2022-10-25T04:11:14.375Z,23.13
2022-10-25T04:13:45.676Z,7.53
2022-10-25T04:16:27.071Z,7.50
2022-10-25T04:18:57.635Z,11.40
2022-10-25T04:21:27.847Z,9.70
2022-10-25T04:23:55.011Z,9.82
2022-10-25T04:26:31.690Z,11.10
2022-10-25T04:29:05.830Z,10.07
2022-10-25T04:31:34.816Z,8.02
2022-10-25T04:34:25.461Z,8.65
2022-10-25T04:37:16.580Z,9.88
2022-10-25T04:39:52.584Z,9.43
2022-10-25T04:42:42.626Z,10.88
2022-10-25T04:45:11.892Z,10.90
2022-10-25T04:47:38.959Z,9.02
2022-10-25T04:50:07.647Z,8.32
2022-10-25T04:52:41.638Z,9.85
2022-10-25T04:55:09.840Z,10.15
2022-10-25T04:57:37.829Z,9.23
2022-10-25T05:00:06.279Z,7.90
2022-10-25T05:02:41.374Z,7.78
2022-10-25T05:05:08.736Z,7.47
2022-10-25T05:07:39.796Z,7.60
2022-10-25T05:10:08.090Z,6.97
2022-10-25T05:12:36.160Z,7.43
2022-10-25T05:15:10.181Z,7.47
2022-10-25T05:17:57.420Z,6.93
2022-10-25T05:20:30.484Z,7.03
2022-10-25T05:23:03.434Z,6.65
2022-10-25T05:25:41.810Z,6.93
2022-10-25T05:28:08.779Z,7.10
2022-10-25T05:30:35.911Z,8.65
2022-10-25T05:33:10.241Z,10.00
2022-10-25T05:35:37.202Z,7.97
2022-10-25T05:38:36.852Z,7.80
2022-10-25T05:41:10.027Z,7.50
2022-10-25T05:43:41.233Z,9.27
2022-10-25T05:46:19.855Z,20.17
2022-10-25T05:48:48.899Z,11.73
2022-10-25T05:51:38.536Z,9.60
2022-10-25T05:54:13.708Z,9.75
2022-10-25T05:56:46.935Z,10.68
2022-10-25T05:59:15.997Z,10.65
2022-10-25T06:01:46.492Z,10.55
2022-10-25T06:04:15.213Z,9.70
2022-10-25T06:06:46.923Z,9.88
2022-10-25T06:09:19.898Z,10.13
2022-10-25T06:11:47.884Z,8.82
2022-10-25T06:14:32.277Z,8.93
2022-10-25T06:17:01.399Z,9.27
2022-10-25T06:19:31.474Z,9.73
2022-10-25T06:22:11.899Z,7.78
2022-10-25T06:24:38.917Z,7.75
2022-10-25T06:27:06.969Z,7.63
2022-10-25T06:29:37.078Z,8.25
2022-10-25T06:32:05.332Z,7.63
2022-10-25T06:34:33.354Z,8.02
2022-10-25T06:37:00.355Z,7.30
2022-10-25T06:39:54.340Z,7.70
2022-10-25T06:42:21.411Z,7.03
2022-10-25T06:44:48.438Z,7.30
2022-10-25T06:47:18.246Z,7.43
2022-10-25T06:49:46.317Z,7.50
2022-10-25T06:52:14.324Z,7.50
2022-10-25T06:54:41.297Z,7.35
2022-10-25T06:57:35.447Z,7.07
2022-10-25T07:00:02.635Z,8.43
2022-10-25T07:02:31.714Z,7.80
2022-10-25T07:05:08.375Z,7.95
2022-10-25T07:07:38.396Z,7.68
2022-10-25T07:10:13.665Z,7.85
2022-10-25T07:12:40.829Z,13.05
2022-10-25T07:15:13.885Z,8.18
2022-10-25T07:17:43.022Z,8.73
2022-10-25T07:20:10.587Z,9.57
2022-10-25T07:22:49.611Z,8.45
2022-10-25T07:25:23.784Z,8.95
2022-10-25T07:27:51.768Z,8.98
2022-10-25T07:30:24.628Z,10.27
2022-10-25T07:32:51.665Z,13.27
2022-10-25T07:35:19.656Z,8.73
2022-10-25T07:37:47.136Z,8.05
2022-10-25T07:40:18.329Z,8.00
2022-10-25T07:42:45.343Z,7.93
2022-10-25T07:45:14.650Z,7.82
2022-10-25T07:47:44.454Z,6.68
2022-10-25T07:50:12.725Z,7.47
2022-10-25T07:52:39.738Z,7.60
2022-10-25T07:55:17.004Z,6.95
2022-10-25T07:57:45.475Z,7.15
2022-10-25T08:00:14.048Z,6.63
2022-10-25T08:02:44.282Z,6.30
2022-10-25T08:05:12.478Z,5.93
2022-10-25T08:07:39.462Z,5.20
2022-10-25T08:10:07.780Z,4.00
2022-10-25T08:12:35.792Z,4.05
2022-10-25T08:15:04.184Z,4.18
2022-10-25T08:17:41.446Z,3.85
2022-10-25T08:20:09.173Z,4.22
2022-10-25T08:22:41.166Z,3.50
2022-10-25T08:25:08.630Z,3.40
2022-10-25T08:27:35.948Z,3.75
2022-10-25T08:30:05.498Z,3.45
2022-10-25T08:32:38.417Z,3.35
2022-10-25T08:35:05.617Z,3.83
2022-10-25T08:37:34.756Z,3.95
2022-10-25T08:40:05.761Z,4.15
2022-10-25T08:42:53.827Z,3.60
2022-10-25T08:45:29.119Z,3.53
2022-10-25T08:47:57.824Z,3.83
2022-10-25T08:50:55.322Z,3.90
2022-10-25T08:53:48.766Z,3.70
2022-10-25T08:56:23.496Z,4.03
2022-10-25T08:59:01.393Z,3.95
2022-10-25T09:01:41.095Z,4.32
2022-10-25T09:04:33.678Z,4.05
2022-10-25T09:07:24.921Z,4.13
2022-10-25T09:10:36.684Z,3.60
2022-10-25T09:13:10.848Z,4.30
2022-10-25T09:15:58.139Z,4.35
2022-10-25T09:18:43.736Z,4.03
2022-10-25T09:21:34.956Z,4.15
2022-10-25T09:24:18.204Z,4.80
2022-10-25T09:27:07.335Z,4.47
2022-10-25T09:29:50.363Z,4.22
2022-10-25T09:32:35.154Z,4.20
2022-10-25T09:35:05.930Z,3.80
2022-10-25T09:38:02.329Z,3.60
2022-10-25T09:40:47.531Z,3.50
2022-10-25T09:43:37.824Z,3.00
2022-10-25T09:46:38.435Z,3.08
2022-10-25T09:49:08.534Z,4.20
2022-10-25T09:51:50.836Z,4.05
2022-10-25T09:54:31.409Z,3.85
2022-10-25T09:56:59.563Z,4.40
2022-10-25T09:59:34.861Z,4.15
2022-10-25T10:02:03.079Z,4.18
2022-10-25T10:04:36.596Z,3.97
2022-10-25T10:07:34.062Z,4.10
2022-10-25T10:10:04.782Z,4.57
2022-10-25T10:13:12.328Z,5.38
2022-10-25T10:16:02.761Z,4.15
2022-10-25T10:18:34.980Z,4.28
2022-10-25T10:21:06.917Z,4.15
2022-10-25T10:23:43.951Z,4.00
2022-10-25T10:26:18.855Z,4.32
2022-10-25T10:28:48.757Z,4.05
2022-10-25T10:31:18.539Z,4.32
2022-10-25T10:33:53.368Z,4.00
2022-10-25T10:36:28.857Z,4.10
2022-10-25T10:39:23.458Z,3.92
2022-10-25T10:42:05.006Z,3.85
2022-10-25T10:44:36.688Z,4.32
2022-10-25T10:47:22.150Z,4.25
2022-10-25T10:49:51.240Z,4.25
2022-10-25T10:52:46.656Z,4.75
2022-10-25T10:55:35.840Z,4.70
2022-10-25T10:58:14.817Z,3.72
2022-10-25T11:00:55.903Z,4.13
2022-10-25T11:03:59.102Z,3.47
2022-10-25T11:06:36.958Z,3.42
2022-10-25T11:09:38.941Z,6.18
2022-10-25T11:12:17.820Z,3.42
2022-10-25T11:14:50.157Z,3.50
2022-10-25T11:17:30.363Z,3.50
2022-10-25T11:20:07.690Z,3.50
2022-10-25T11:23:13.002Z,3.70
2022-10-25T11:26:19.290Z,3.80
2022-10-25T11:29:30.333Z,3.65
2022-10-25T11:32:22.389Z,3.63
2022-10-25T11:35:35.195Z,3.90
2022-10-25T11:38:14.328Z,3.38
2022-10-25T11:41:20.308Z,3.38
2022-10-25T11:44:02.337Z,3.30
2022-10-25T11:47:03.312Z,2.90
2022-10-25T11:49:58.491Z,3.28
2022-10-25T11:52:38.685Z,3.10
2022-10-25T11:56:02.918Z,3.03
2022-10-25T11:58:50.887Z,3.20
2022-10-25T12:02:03.243Z,2.85
2022-10-25T12:04:56.106Z,3.33
2022-10-25T12:07:33.511Z,3.08
2022-10-25T12:10:20.009Z,3.35
2022-10-25T12:13:12.666Z,3.08
2022-10-25T12:15:43.035Z,3.38
2022-10-25T12:18:31.560Z,2.70
2022-10-25T12:21:00.258Z,3.67
2022-10-25T12:23:30.303Z,3.47
2022-10-25T12:26:17.054Z,3.42
2022-10-25T12:29:05.877Z,3.20
2022-10-25T12:31:48.295Z,2.95
2022-10-25T12:34:41.661Z,2.92
2022-10-25T12:37:29.578Z,3.45
2022-10-25T12:39:56.965Z,2.60
2022-10-25T12:42:28.987Z,3.08
2022-10-25T12:45:45.978Z,2.90
2022-10-25T12:48:55.170Z,3.00
2022-10-25T12:51:38.330Z,3.30
2022-10-25T12:54:29.360Z,2.80
2022-10-25T12:57:11.568Z,2.70
2022-10-25T13:00:00.934Z,3.42
2022-10-25T13:02:50.294Z,2.90
2022-10-25T13:05:57.935Z,2.70
2022-10-25T13:08:32.325Z,2.88
2022-10-25T13:11:05.129Z,2.80
2022-10-25T13:13:41.644Z,2.65
2022-10-25T13:16:22.626Z,3.00
2022-10-25T13:19:42.739Z,2.90
2022-10-25T13:22:14.001Z,3.03
2022-10-25T13:24:52.448Z,3.13
2022-10-25T13:27:24.634Z,3.50
2022-10-25T13:30:07.201Z,3.13
2022-10-25T13:32:38.563Z,3.90
2022-10-25T13:35:20.777Z,3.65
2022-10-25T13:38:06.219Z,4.00
2022-10-25T13:40:38.524Z,4.22
2022-10-25T13:43:21.375Z,4.13
2022-10-25T13:45:59.281Z,4.30
2022-10-25T13:48:33.628Z,3.88
2022-10-25T13:51:13.126Z,3.75
2022-10-25T13:53:45.747Z,3.92
2022-10-25T13:56:53.961Z,4.85
2022-10-25T13:59:46.893Z,5.00
2022-10-25T14:02:19.955Z,5.25
2022-10-25T14:04:50.249Z,4.43
2022-10-25T14:08:02.082Z,4.97
2022-10-25T14:10:35.436Z,5.45
2022-10-25T14:13:19.895Z,5.97
2022-10-25T14:16:03.404Z,5.40
2022-10-25T14:18:36.447Z,5.63
2022-10-25T14:21:05.896Z,5.50
2022-10-25T14:23:35.623Z,5.10
2022-10-25T14:26:03.491Z,5.00
2022-10-25T14:28:36.064Z,5.80
2022-10-25T14:31:06.645Z,5.00
2022-10-25T14:33:37.946Z,5.53
2022-10-25T14:36:31.972Z,5.43
2022-10-25T14:39:15.050Z,4.93
2022-10-25T14:42:00.804Z,5.70
2022-10-25T14:44:54.963Z,5.30
2022-10-25T14:47:33.025Z,5.47
2022-10-25T14:50:02.267Z,5.28
2022-10-25T14:52:31.674Z,4.72
2022-10-25T14:55:03.383Z,5.18
2022-10-25T14:57:31.701Z,4.95
2022-10-25T15:00:02.708Z,4.82
2022-10-25T15:02:40.458Z,4.90
2022-10-25T15:05:17.385Z,5.68
2022-10-25T15:07:47.439Z,5.70
2022-10-25T15:10:44.121Z,6.22
2022-10-25T15:13:41.135Z,6.70
2022-10-25T15:16:37.814Z,7.20
2022-10-25T15:19:14.255Z,6.57
2022-10-25T15:21:52.376Z,6.10
2022-10-25T15:24:27.271Z,5.30
2022-10-25T15:27:03.773Z,5.10
2022-10-25T15:29:51.355Z,4.93
2022-10-25T15:32:26.617Z,5.53
2022-10-25T15:35:03.533Z,5.03
2022-10-25T15:37:31.727Z,5.20
2022-10-25T15:40:15.208Z,5.10
2022-10-25T15:42:43.233Z,4.93
2022-10-25T15:45:13.933Z,5.40
2022-10-25T15:47:47.855Z,7.10
2022-10-25T15:50:18.629Z,10.25
2022-10-25T15:52:49.006Z,10.35
2022-10-25T15:55:27.423Z,9.60
2022-10-25T15:57:55.395Z,8.55
2022-10-25T16:00:27.937Z,7.97
2022-10-25T16:02:56.362Z,9.77
2022-10-25T16:05:31.007Z,12.90
2022-10-25T16:08:02.807Z,11.40
2022-10-25T16:10:33.110Z,12.75
2022-10-25T16:13:07.164Z,14.13
2022-10-25T16:15:36.304Z,13.68
2022-10-25T16:18:13.550Z,9.05
2022-10-25T16:20:42.841Z,6.57
2022-10-25T16:23:12.099Z,7.07
2022-10-25T16:25:39.285Z,8.00
2022-10-25T16:28:12.930Z,10.50
2022-10-25T16:30:43.095Z,13.88
2022-10-25T16:33:15.703Z,12.90
2022-10-25T16:35:46.123Z,10.30
2022-10-25T16:38:13.280Z,9.70
2022-10-25T16:40:41.321Z,11.05
2022-10-25T16:43:16.282Z,10.48
2022-10-25T16:45:51.821Z,10.98
2022-10-25T16:48:43.210Z,12.38
2022-10-25T16:51:20.564Z,11.85
2022-10-25T16:53:49.942Z,11.57
2022-10-25T16:56:24.683Z,11.45
2022-10-25T16:58:56.997Z,11.80
2022-10-25T17:01:34.699Z,12.45
2022-10-25T17:04:04.517Z,14.40
2022-10-25T17:06:41.761Z,11.25
2022-10-25T17:09:12.690Z,10.35
2022-10-25T17:11:48.132Z,10.05
2022-10-25T17:14:32.333Z,9.88
2022-10-25T17:17:03.146Z,11.77
2022-10-25T17:19:31.283Z,11.57
2022-10-25T17:22:01.916Z,11.02
2022-10-25T17:24:33.265Z,11.30
2022-10-25T17:27:01.680Z,10.05
2022-10-25T17:29:33.010Z,10.73
2022-10-25T17:32:02.330Z,11.85
2022-10-25T17:34:40.923Z,11.82
2022-10-25T17:37:22.937Z,19.60
2022-10-25T17:40:14.955Z,19.08
2022-10-25T17:43:27.616Z,22.98
2022-10-25T17:46:26.860Z,19.52
2022-10-25T17:49:06.250Z,16.85
2022-10-25T17:51:50.695Z,16.23
2022-10-25T17:54:22.025Z,15.93
2022-10-25T17:56:51.333Z,17.08
2022-10-25T17:59:19.533Z,16.77
2022-10-25T18:01:47.135Z,21.33
2022-10-25T18:04:15.554Z,23.85
2022-10-25T18:06:42.929Z,22.30
2022-10-25T18:09:11.131Z,13.20
2022-10-25T18:11:54.237Z,11.95
2022-10-25T18:14:30.708Z,21.83
2022-10-25T18:16:58.230Z,22.65
2022-10-25T18:19:35.796Z,19.52
2022-10-25T18:22:12.174Z,18.17
2022-10-25T18:25:00.153Z,16.13
2022-10-25T18:27:31.506Z,15.68
2022-10-25T18:30:00.661Z,13.02
2022-10-25T18:32:36.471Z,15.73
2022-10-25T18:35:04.620Z,15.73
2022-10-25T18:37:46.048Z,14.80
2022-10-25T18:40:16.424Z,9.30
2022-10-25T18:42:55.973Z,8.98
2022-10-25T18:45:23.721Z,15.50
2022-10-25T18:48:01.374Z,18.50
2022-10-25T18:50:42.536Z,17.15
2022-10-25T18:53:32.950Z,25.20
2022-10-25T18:56:04.519Z,23.65
2022-10-25T18:58:41.986Z,22.48
2022-10-25T19:01:26.156Z,17.77
2022-10-25T19:04:03.574Z,13.07
2022-10-25T19:06:42.777Z,15.07
2022-10-25T19:09:10.439Z,15.25
2022-10-25T19:11:50.860Z,14.45
2022-10-25T19:14:41.340Z,13.77
2022-10-25T19:17:09.866Z,15.32
2022-10-25T19:19:47.496Z,19.38
2022-10-25T19:22:36.456Z,21.23
2022-10-25T19:25:11.217Z,15.38
2022-10-25T19:27:44.441Z,13.38
2022-10-25T19:30:22.459Z,14.38
2022-10-25T19:32:54.373Z,11.30
2022-10-25T19:35:25.235Z,12.98
2022-10-25T19:38:39.577Z,14.35
2022-10-25T19:48:35.778Z,16.67
2022-10-25T19:51:36.024Z,22.67
2022-10-25T19:54:34.777Z,11.18
2022-10-25T19:57:03.854Z,13.77
2022-10-25T20:00:09.906Z,12.23
2022-10-25T20:02:40.455Z,19.40
2022-10-25T20:05:22.604Z,23.10
2022-10-25T20:07:50.204Z,16.48
2022-10-25T20:10:18.853Z,13.40
2022-10-25T20:12:56.304Z,14.68
2022-10-25T20:15:25.978Z,13.35
2022-10-25T20:18:03.585Z,13.68
2022-10-25T20:20:42.549Z,12.43
2022-10-25T20:23:11.983Z,12.55
2022-10-25T20:26:17.298Z,19.35
2022-10-25T20:28:59.049Z,14.88
2022-10-25T20:31:32.664Z,10.93
2022-10-25T20:34:30.888Z,14.10
2022-10-25T20:37:23.326Z,31.27
2022-10-25T20:40:23.149Z,16.50
2022-10-25T20:42:59.018Z,50.75
2022-10-25T20:45:45.057Z,31.45
2022-10-25T20:48:21.454Z,20.95
2022-10-25T20:50:50.814Z,9.10
2022-10-25T20:53:52.214Z,9.93
2022-10-25T20:56:22.913Z,10.70
2022-10-25T20:58:58.063Z,9.82
2022-10-25T21:01:33.507Z,17.08
2022-10-25T21:04:01.558Z,17.52
2022-10-25T21:06:42.807Z,17.80
2022-10-25T21:09:49.178Z,14.15
2022-10-25T21:12:27.060Z,9.90
2022-10-25T21:15:01.219Z,9.32
2022-10-25T21:18:11.747Z,16.33
2022-10-25T21:21:01.353Z,8.23
2022-10-25T21:23:39.597Z,8.82
2022-10-25T21:26:14.057Z,50.65
2022-10-25T21:28:42.153Z,45.20
2022-10-25T21:31:15.123Z,17.67
2022-10-25T21:33:50.225Z,28.10
2022-10-25T21:36:35.714Z,10.60
2022-10-25T21:39:15.725Z,9.07
2022-10-25T21:41:57.219Z,17.73
2022-10-25T21:44:24.407Z,7.82
2022-10-25T21:47:09.477Z,8.77
2022-10-25T21:49:36.677Z,9.85
2022-10-25T21:52:03.724Z,26.50
2022-10-25T21:54:46.076Z,12.10
2022-10-25T21:57:13.055Z,9.02
2022-10-25T21:59:39.960Z,9.32
2022-10-25T22:02:08.417Z,9.00
2022-10-25T22:04:42.881Z,8.90
2022-10-25T22:07:15.857Z,8.40
2022-10-25T22:09:42.774Z,13.82
2022-10-25T22:12:24.074Z,15.35
2022-10-25T22:14:52.187Z,12.77
2022-10-25T22:17:44.794Z,11.02
2022-10-25T22:20:13.757Z,12.05
2022-10-25T22:22:49.989Z,11.18
2022-10-25T22:25:27.264Z,10.95
2022-10-25T22:28:09.576Z,11.85
2022-10-25T22:30:38.482Z,10.02
2022-10-25T22:33:09.637Z,10.45
2022-10-25T22:36:24.998Z,10.23
2022-10-25T22:39:11.222Z,13.15
2022-10-25T22:41:39.313Z,11.23
2022-10-25T22:44:07.279Z,13.35
2022-10-25T22:46:44.275Z,36.05
2022-10-25T22:49:11.457Z,11.23
2022-10-25T22:51:43.900Z,12.45
2022-10-25T22:54:21.459Z,8.25
2022-10-25T22:57:27.662Z,8.77
2022-10-25T22:59:55.619Z,7.60
2022-10-25T23:02:28.251Z,9.55
2022-10-25T23:05:24.267Z,12.43
2022-10-25T23:07:53.696Z,9.90
2022-10-25T23:14:01.881Z,11.60
2022-10-25T23:16:52.574Z,9.02
2022-10-25T23:19:26.696Z,13.27
2022-10-25T23:22:12.108Z,10.23
2022-10-25T23:24:41.070Z,9.43
2022-10-25T23:27:10.605Z,8.13
2022-10-25T23:29:50.685Z,9.82
2022-10-25T23:32:18.615Z,9.20
2022-10-25T23:35:04.673Z,9.60
2022-10-25T23:37:31.875Z,9.73
2022-10-25T23:40:05.309Z,10.32
2022-10-25T23:42:38.399Z,11.60
2022-10-25T23:45:08.049Z,13.10
2022-10-25T23:48:10.121Z,13.57
2022-10-25T23:50:37.103Z,15.40
2022-10-25T23:53:05.707Z,11.48
2022-10-25T23:55:52.813Z,13.75
2022-10-25T23:58:21.904Z,12.63
